Home > Products > Valid Products > TAF

000
FTUS45 KABQ 211700 RRA
TAFSAF
TAF
KSAF 211749Z 2118/2218 26008KT P6SM FEW080 SCT200
     FM220300 34006KT P6SM SCT070 BKN150
     FM221200 36009KT P6SM VCSH BKN070=



000
FTUS45 KABQ 211700 RRA
TAFFMN
TAF
KFMN 211749Z 2118/2218 27010KT P6SM SCT100 BKN200
     FM220200 24013KT P6SM VCSH BKN080
     FM220600 35009KT 5SM -SHRA SCT030 BKN050
     FM221000 07005KT P6SM BKN040=



000
FTUS45 KABQ 211700 RRA
TAFABQ
TAF
KABQ 211749Z 2118/2218 30006KT P6SM SCT090 BKN200
     FM220900 VRB04KT P6SM VCSH BKN070=



000
FTUS45 KABQ 211700 RRA
TAFGUP
TAF
KGUP 211749Z 2118/2218 VRB04KT P6SM SCT090 BKN200
     FM212200 28007KT P6SM VCSH SCT080 BKN150
     FM220000 VRB04KT 5SM -SHRA BKN040
     FM220600 VRB05KT P6SM SCT040 BKN070=



000
FTUS45 KABQ 211700 RRA
TAFROW
TAF
KROW 211749Z 2118/2218 18011KT P6SM SCT100
     FM220200 18010KT P6SM VCSH BKN100
     FM220500 17008KT P6SM SCT100 BKN200=



000
FTUS45 KABQ 211700 RRA
TAFLVS
TAF
KLVS 211749Z 2118/2218 20011G17KT P6SM SCT090
     FM220200 17008KT P6SM SCT080 BKN200
     FM221400 05006KT P6SM BKN100=



000
FTUS45 KABQ 211700 RRA
TAFTCC
TAF
KTCC 211749Z 2118/2218 23013G23KT P6SM SCT080
     FM220200 18011KT P6SM SCT100
     FM221200 21010KT P6SM BKN100=



000
FTUS45 KABQ 211100
TAFROW
TAF
KROW 211124Z 2112/2212 VRB05KT P6SM SCT150
     FM212100 17010KT P6SM SCT100 SCT200
     FM220300 18010KT P6SM VCSH BKN100=



000
FTUS45 KABQ 211100
TAFTCC
TAF
KTCC 211124Z 2112/2212 22010KT P6SM SCT110
     FM211900 21013G23KT P6SM SCT110
     FM220200 17011KT P6SM SCT100
     FM221000 21010KT P6SM BKN100=



000
FTUS45 KABQ 211100
TAFSAF
TAF
KSAF 211124Z 2112/2212 36008KT P6SM FEW120
     FM211900 25008KT P6SM FEW110 SCT200
     FM220300 35006KT P6SM SCT090 BKN150
     FM220900 35009KT P6SM BKN100=



000
FTUS45 KABQ 211100
TAFLVS
TAF
KLVS 211124Z 2112/2212 34007KT P6SM SKC
     FM211900 19011G19KT P6SM SCT120
     FM220200 20007KT P6SM SCT090 SCT200
     FM221000 18007KT P6SM BKN100=



000
FTUS45 KABQ 211100
TAFFMN
TAF
KFMN 211124Z 2112/2212 VRB05KT P6SM FEW120
     FM211900 27011KT P6SM FEW110 BKN200
     FM220000 28008KT P6SM SCT100 BKN200
     FM220300 25010KT P6SM VCSH BKN100=



000
FTUS45 KABQ 211100
TAFABQ
TAF
KABQ 211124Z 2112/2212 VRB05KT P6SM FEW130
     FM212000 27006KT P6SM FEW120 SCT200
     FM220400 23006KT P6SM SCT090 BKN150
     FM220900 VRB05KT P6SM VCSH BKN090=



000
FTUS45 KABQ 211100
TAFGUP
TAF
KGUP 211124Z 2112/2212 VRB05KT P6SM BKN100
     FM211900 VRB06KT P6SM SCT110 BKN200
     FM212200 28007KT P6SM -SHRA SCT090 BKN200
     FM220100 25008KT P6SM -SHRA BKN070=



000
FTUS45 KABQ 210500
TAFFMN
TAF
KFMN 210539Z 2106/2206 VRB05KT P6SM FEW120
     FM211900 27011KT P6SM FEW110 SCT200
     FM220000 30008KT P6SM SCT100 BKN200
     FM220300 25010KT P6SM VCSH BKN100=



000
FTUS45 KABQ 210500
TAFABQ
TAF
KABQ 210539Z 2106/2206 16005KT P6SM FEW130
     FM212000 VRB06KT P6SM FEW120 SCT200
     FM220400 23006KT P6SM SCT090 BKN150=



000
FTUS45 KABQ 210500
TAFROW
TAF
KROW 210539Z 2106/2206 VRB05KT P6SM SCT100
     FM212100 17010KT P6SM SCT100 SCT200
     FM220300 17010KT P6SM VCSH BKN100=



000
FTUS45 KABQ 210500
TAFGUP
TAF
KGUP 210539Z 2106/2206 VRB05KT P6SM FEW120
     FM211900 VRB06KT P6SM FEW110 SCT200
     FM220000 21008KT P6SM VCSH BKN070
      TEMPO 2201/2205 VRB15G23KT 6SM SHRA BKN060=



000
FTUS45 KABQ 210500
TAFSAF
TAF
KSAF 210539Z 2106/2206 35005KT P6SM FEW120
     FM212000 25008KT P6SM FEW110 SCT200
     FM220400 32005KT P6SM SCT090 BKN150=



000
FTUS45 KABQ 210500
TAFLVS
TAF
KLVS 210539Z 2106/2206 02005KT P6SM SCT110
     FM211800 19013KT P6SM FEW120
     FM220300 20007KT P6SM SCT090 SCT200=



000
FTUS45 KABQ 210500
TAFTCC
TAF
KTCC 210539Z 2106/2206 19010KT P6SM BKN110
     FM211000 22010KT P6SM SCT110
     FM211900 21013KT P6SM SCT100
     FM220200 17011KT P6SM SCT090=



000
FTUS45 KABQ 210200 AAA
TAFROW
TAF AMD
KROW 210202Z 2102/2124 VRB06KT P6SM VCSH SCT090 BKN150
     FM210400 17007KT P6SM SCT100=



000
FTUS45 KABQ 210000 CCA
TAFLVS
TAF COR
KLVS 210010Z 2100/2124 32011KT P6SM SCT070 BKN110
     FM210700 VRB05KT P6SM SKC
     FM211800 17010KT P6SM FEW120=



000
FTUS45 KABQ 202300
TAFROW
TAF
KROW 202337Z 2100/2124 22005KT P6SM VCSH SCT090
     FM210100 17007KT P6SM SCT100=



000
FTUS45 KABQ 202300
TAFABQ
TAF
KABQ 202337Z 2100/2124 27010KT P6SM SCT100
     FM210200 31007KT P6SM FEW120
     FM210700 VRB04KT P6SM SKC
     FM212000 23007KT P6SM FEW120=



000
FTUS45 KABQ 202300
TAFLVS
TAF
KLVS 202337Z 2100/2124 21011KT P6SM SCT070 BKN110
     FM210700 VRB05KT P6SM SKC
     FM211800 17010KT P6SM FEW120=



000
FTUS45 KABQ 202300
TAFSAF
TAF
KSAF 202337Z 2100/2124 26011KT P6SM BKN100
     FM210200 34005KT P6SM FEW120
     FM212000 25008KT P6SM FEW120=



000
FTUS45 KABQ 202300
TAFTCC
TAF
KTCC 202337Z 2100/2124 19013G21KT P6SM VCSH SCT090 BKN120
     FM210300 21011KT P6SM BKN100
     FM210900 21010KT P6SM FEW120
     FM211900 20013KT P6SM FEW120=



000
FTUS45 KABQ 202300
TAFGUP
TAF
KGUP 202337Z 2100/2124 25011KT P6SM BKN120
     FM210200 VRB05KT P6SM FEW120
     FM211800 26008KT P6SM FEW100 SCT150=



000
FTUS45 KABQ 202300
TAFFMN
TAF
KFMN 202337Z 2100/2124 28012G20KT P6SM FEW120
     FM210200 29007KT P6SM FEW120
     FM210600 VRB05KT P6SM SKC
     FM211900 25010KT P6SM SCT200=



000
FTUS45 KABQ 202100 AAA
TAFGUP
TAF AMD
KGUP 202136Z 2022/2118 28011KT P6SM BKN090
     FM210200 VRB05KT P6SM SKC=



000
FTUS45 KABQ 201700 RRA
TAFFMN
TAF
KFMN 201752Z 2018/2118 27012KT P6SM SCT060
     FM202100 28013G20KT P6SM FEW100
     FM210200 28007KT P6SM SKC=



000
FTUS45 KABQ 201700 RRA
TAFTCC
TAF
KTCC 201752Z 2018/2118 22014G23KT P6SM SCT060
     FM202200 21017G28KT P6SM VCSH SCT060 BKN100
     FM210200 20015KT P6SM SCT120=



000
FTUS45 KABQ 201700 RRA
TAFABQ
TAF
KABQ 201752Z 2018/2118 30010KT P6SM SCT080
     FM210200 33006KT P6SM SKC=



000
FTUS45 KABQ 201700 RRA
TAFGUP
TAF
KGUP 201752Z 2018/2118 27008KT P6SM SCT070
     FM202000 27013G20KT P6SM FEW090
     FM210200 VRB05KT P6SM SKC=



000
FTUS45 KABQ 201700 RRA
TAFLVS
TAF
KLVS 201752Z 2018/2118 23011G20KT P6SM SCT070 BKN120
     FM202100 24014G23KT P6SM VCSH SCT070 BKN120
     FM210100 23008KT P6SM SCT070 BKN120
     FM210800 VRB05KT P6SM SKC=



000
FTUS45 KABQ 201700 RRA
TAFROW
TAF
KROW 201752Z 2018/2118 16007KT P6SM FEW070 SCT120
     FM202200 27009KT P6SM VCSH SCT070 BKN150
      TEMPO 2023/2101 28015G25KT -SHRA BKN080
     FM210200 17007KT P6SM BKN120=



000
FTUS45 KABQ 201700 RRA
TAFSAF
TAF
KSAF 201752Z 2018/2118 30010KT P6SM BKN070
     FM210200 VRB05KT P6SM SKC=



000
FTUS45 KABQ 201400 AAA
TAFSAF
TAF AMD
KSAF 201435Z 2015/2112 VRB05KT P6SM SCT080 BKN120
      TEMPO 2015/2016 -SHRA BKN080
     FM201600 30010KT P6SM SCT090
     FM210100 VRB05KT P6SM SKC=



000
FTUS45 KABQ 201100
TAFTCC
TAF
KTCC 201126Z 2012/2112 22010KT P6SM SCT150
     FM201800 21014G23KT P6SM SCT070 BKN130
     FM202200 21016G25KT P6SM VCTS SCT070CB BKN130
     FM210200 19010KT P6SM FEW080 BKN150
     FM210800 22010KT P6SM SCT200=



000
FTUS45 KABQ 201100
TAFFMN
TAF
KFMN 201126Z 2012/2112 26005KT P6SM SCT050 BKN070
     FM201500 26008KT P6SM SCT060
     FM202100 28011G18KT P6SM FEW070
     FM210100 29006KT P6SM FEW070=



000
FTUS45 KABQ 201100
TAFGUP
TAF
KGUP 201126Z 2012/2112 VRB05KT P6SM SCT120
     FM201600 25008KT P6SM SCT100
     FM202100 26010G17KT P6SM SCT070
     FM210100 VRB05KT P6SM FEW070=



000
FTUS45 KABQ 201100
TAFSAF
TAF
KSAF 201126Z 2012/2112 VRB05KT P6SM SCT060 BKN120
     FM201600 30007KT P6SM SCT060 SCT100
     FM201900 29010KT P6SM SCT070 SCT150
     FM210100 VRB05KT P6SM FEW120=



000
FTUS45 KABQ 201100
TAFABQ
TAF
KABQ 201126Z 2012/2112 VRB05KT P6SM SCT110 BKN150
     FM201800 30010KT P6SM SCT070 SCT150
     FM210100 33008KT P6SM FEW080=



000
FTUS45 KABQ 201100
TAFLVS
TAF
KLVS 201126Z 2012/2112 VRB05KT P6SM SCT080 BKN150
     FM201700 22012G20KT P6SM SCT070 SCT150
     FM202100 23012G20KT P6SM VCTS SCT070CB SCT150
     FM210000 23010KT P6SM FEW070 SCT150
     FM210900 25008KT P6SM SCT250=



000
FTUS45 KABQ 201100
TAFROW
TAF
KROW 201126Z 2012/2112 18006KT P6SM SCT100 SCT150
     FM202100 19009KT P6SM VCTS SCT070CB BKN130
     FM210100 17008KT P6SM VCSH BKN090
     FM210600 16006KT P6SM SCT100 SCT200=



000
FTUS45 KABQ 201000 AAA
TAFGUP
TAF AMD
KGUP 201029Z 2010/2106 VRB05KT P6SM SCT030 SCT120
     FM201600 25008KT P6SM SCT060
     FM202100 26010KT P6SM SCT070
     FM210100 VRB05KT P6SM FEW070=



000
FTUS45 KABQ 200500
TAFGUP
TAF
KGUP 200528Z 2006/2106 19005KT P6SM SCT028 BKN100
      TEMPO 2006/2008 BKN028
     FM200800 VRB05KT P6SM SCT019 BKN028
     FM201600 25008KT P6SM SCT060
     FM202100 26010KT P6SM SCT070
     FM210100 VRB05KT P6SM FEW070=



000
FTUS45 KABQ 200500
TAFABQ
TAF
KABQ 200528Z 2006/2106 20009KT P6SM SCT090 BKN150
     FM201000 VRB05KT P6SM BKN060 BKN150
     FM201600 28006KT P6SM SCT070 SCT150
     FM202000 29008G15KT P6SM SCT070 SCT150
     FM210100 30008KT P6SM FEW080=



000
FTUS45 KABQ 200500
TAFLVS
TAF
KLVS 200528Z 2006/2106 22010KT P6SM SCT090 SCT150
     FM200900 22008KT P6SM BKN090
     FM201700 22012G20KT P6SM SCT070 SCT150
     FM202100 25010KT P6SM VCTS SCT070CB SCT150
     FM210000 25008KT P6SM FEW070 SCT150=



000
FTUS45 KABQ 200500
TAFSAF
TAF
KSAF 200528Z 2006/2106 19008KT P6SM SCT090 BKN130
     FM200900 35006KT P6SM SCT060 BKN090
     FM201600 33007KT P6SM SCT060 SCT100
     FM201900 29008G15KT P6SM SCT070 SCT150
     FM210100 32006KT P6SM FEW080 SCT150=



000
FTUS45 KABQ 200500
TAFROW
TAF
KROW 200528Z 2006/2106 17005KT P6SM SCT100 SCT150
     FM201000 20006KT P6SM BKN100
     FM202200 19009KT P6SM VCTS SCT070CB BKN130
     FM210100 17008KT P6SM VCSH BKN070 BKN150=



000
FTUS45 KABQ 200500
TAFTCC
TAF
KTCC 200528Z 2006/2106 17010KT P6SM SCT100
     FM200800 20010KT P6SM SCT100 SCT150
     FM202200 21013G21KT P6SM VCTS SCT070CB BKN130
     FM210100 19010KT P6SM FEW080 SCT150=



000
FTUS45 KABQ 200500
TAFFMN
TAF
KFMN 200528Z 2006/2106 VRB05KT P6SM SCT050 BKN080
     FM200900 VRB06KT P6SM BKN035
     FM201600 26008KT P6SM SCT060
     FM202100 28011G18KT P6SM FEW070
     FM210100 29006KT P6SM FEW070=



000
FTUS45 KABQ 200400 AAA
TAFABQ
TAF AMD
KABQ 200407Z 2004/2024 15009KT P6SM SCT090 BKN150
     FM201000 VRB06KT P6SM SCT060 BKN100
     FM201800 29008KT P6SM SCT070 SCT150=



000
FTUS45 KABQ 192300
TAFTCC
TAF
KTCC 192337Z 2000/2024 18010KT P6SM SCT100
     FM201000 21010KT P6SM FEW100 SCT150
     FM201900 21013G21KT P6SM FEW090 SCT150=



000
FTUS45 KABQ 192300
TAFROW
TAF
KROW 192337Z 2000/2024 15005KT P6SM FEW090 SCT150
     FM200500 VRB06KT P6SM SCT090 SCT150
     FM201200 20008KT P6SM BKN090=



000
FTUS45 KABQ 192300
TAFLVS
TAF
KLVS 192337Z 2000/2024 20010G18KT P6SM VCSH SCT080 BKN110
     FM200400 20006KT P6SM SCT090 SCT150
     FM200700 VRB05KT P6SM SCT090 BKN150
     FM201700 22010G18KT P6SM BKN090
     FM202200 26010KT P6SM VCSH SCT090 SCT150=



000
FTUS45 KABQ 192300
TAFABQ
TAF
KABQ 192337Z 2000/2024 25011KT P6SM SCT090 BKN150
     FM200100 27012G20KT P6SM VCSH SCT080 BKN150
     FM200400 30008KT P6SM SCT070 BKN130
     FM200700 29006KT P6SM VCSH BKN060
     FM201100 29006KT P6SM SCT060 SCT130
     FM201800 28008KT P6SM SCT070=



000
FTUS45 KABQ 192300
TAFFMN
TAF
KFMN 192337Z 2000/2024 28012G20KT P6SM VCSH BKN110
     FM200300 VRB06KT P6SM VCSH BKN060
     FM200900 08007KT P6SM BKN045
     FM201700 26008KT P6SM FEW060=



000
FTUS45 KABQ 192300
TAFGUP
TAF
KGUP 192337Z 2000/2024 24013KT P6SM VCTS SCT060CB BKN100
      TEMPO 2000/2002 VRB15G23KT 6SM -SHRA BKN050
     FM200200 23008KT P6SM VCSH SCT040 BKN100
     FM201000 VRB05KT P6SM SCT015 BKN035
     FM201700 25008KT P6SM FEW060=



000
FTUS45 KABQ 192300
TAFSAF
TAF
KSAF 192337Z 2000/2024 21011KT P6SM VCSH SCT090 BKN150
     FM200400 35006KT P6SM BKN070 BKN130
     FM201000 32006KT P6SM VCSH BKN060
     FM201400 35007KT P6SM SCT060 SCT110
     FM201900 29010G16KT P6SM SCT060 SCT110=



000
FTUS45 KABQ 192100 AAA
TAFABQ
TAF AMD
KABQ 192144Z 1922/2018 23013KT P6SM SCT090
      TEMPO 1922/1924 23015G25KT
     FM200000 25013G20KT P6SM VCSH SCT080 BKN120
     FM200300 30008KT P6SM -SHRA BKN060
     FM200600 VRB04KT P6SM BKN060=



000
FTUS45 KABQ 191700 RRA
TAFSAF
TAF
KSAF 191749Z 1918/2018 21011KT P6SM FEW070 SCT150
     FM192300 22012G19KT P6SM VCSH FEW080 BKN120
     FM200400 36006KT P6SM BKN050=



000
FTUS45 KABQ 191700 RRA
TAFTCC
TAF
KTCC 191749Z 1918/2018 23006KT P6SM SCT200
     FM192000 16008KT P6SM FEW150=



000
FTUS45 KABQ 191700 RRA
TAFABQ
TAF
KABQ 191749Z 1918/2018 VRB05KT P6SM FEW090 SCT200
     FM192000 19010KT P6SM SCT090
     FM200030 27013G20KT P6SM VCSH SCT090 BKN120
     FM200300 30008KT P6SM -SHRA BKN060
     FM200600 VRB04KT P6SM BKN060=



000
FTUS45 KABQ 191700 RRA
TAFROW
TAF
KROW 191749Z 1918/2018 VRB05KT P6SM SKC
     FM192000 17010KT P6SM FEW150=



000
FTUS45 KABQ 191700 RRA
TAFLVS
TAF
KLVS 191749Z 1918/2018 20014G23KT P6SM FEW070 SCT150
     FM192200 18015G25KT P6SM VCSH SCT080 SCT120
     FM200200 22011KT P6SM -SHRA BKN070
     FM200600 25008KT P6SM SCT090 BKN150=



000
FTUS45 KABQ 191700 RRA
TAFGUP
TAF
KGUP 191749Z 1918/2018 25008KT P6SM VCSH SCT080 BKN150
     FM192100 22013G20KT P6SM VCTS SCT060CB BKN110
      TEMPO 1921/1924 VRB15G25KT 5SM SHRA BKN050
     FM200000 23008KT P6SM -SHRA BKN050
     FM200500 22006KT P6SM SCT025 OVC040=



000
FTUS45 KABQ 191700 RRA
TAFFMN
TAF
KFMN 191749Z 1918/2018 VRB05KT P6SM SCT080 BKN150
     FM192200 21012KT P6SM VCTS SCT080CB BKN120
      TEMPO 1922/2001 VRB15G25KT -TSRA BKN050CB
     FM200100 26009KT P6SM -SHRA BKN050
     FM200500 08007KT P6SM BKN050=



000
FTUS45 KABQ 191100
TAFABQ
TAF
KABQ 191124Z 1912/2012 VRB05KT P6SM SCT200
     FM192000 20010KT P6SM FEW100 SCT150
     FM200100 27011G18KT P6SM VCSH SCT090 BKN150
     FM200400 30008KT P6SM VCSH BKN090=



000
FTUS45 KABQ 191100
TAFTCC
TAF
KTCC 191124Z 1912/2012 23008KT P6SM SCT200
     FM192100 17011KT P6SM FEW100
     FM200200 18010KT P6SM SCT100 SCT150
     FM200900 21010KT P6SM SCT200=



000
FTUS45 KABQ 191100
TAFLVS
TAF
KLVS 191124Z 1912/2012 VRB06KT P6SM SCT120
     FM191800 19012G21KT P6SM FEW070 SCT150
     FM200100 18011KT P6SM SCT070 BKN130
     FM200600 21010KT P6SM SCT100 BKN150=



000
FTUS45 KABQ 191100
TAFSAF
TAF
KSAF 191124Z 1912/2012 VRB06KT P6SM SCT100
     FM191900 20010G17KT P6SM FEW080 SCT150
     FM200100 24011KT P6SM VCSH SCT080 BKN150
     FM200500 36006KT P6SM BKN150=



000
FTUS45 KABQ 191100
TAFROW
TAF
KROW 191124Z 1912/2012 15006KT P6SM SKC
     FM192300 18010KT P6SM SCT120=



000
FTUS45 KABQ 191100
TAFGUP
TAF
KGUP 191124Z 1912/2012 VRB06KT P6SM SCT120 SCT150
     FM191900 22010G18KT P6SM SCT100 SCT150
     FM192100 23012G20KT P6SM VCTS SCT080CB BKN120
      TEMPO 1922/2002 VRB15G25KT -TSRA BKN050CB
     FM200200 23007KT P6SM VCSH SCT060 BKN090=



000
FTUS45 KABQ 191100
TAFFMN
TAF
KFMN 191124Z 1912/2012 VRB05KT P6SM SCT100 BKN150
     FM192000 23010KT P6SM SCT100 SCT150
     FM192200 22010KT P6SM VCTS SCT090CB BKN150
      TEMPO 1923/2003 VRB15G25KT -TSRA BKN050CB
     FM200300 26007KT P6SM BKN080=



000
FTUS45 KABQ 190600 AAA
TAFFMN
TAF AMD
KFMN 190620Z 1906/2006 VRB06KT P6SM VCSH SCT110 BKN150
      TEMPO 1906/1908 VRB15G25KT -TSRA BKN080CB
     FM190800 08008KT P6SM SCT120 SCT150
     FM192000 23008KT P6SM SCT120 SCT150
     FM200000 28011KT P6SM VCSH BKN110
      TEMPO 2001/2004 -SHRA SCT050 BKN100=



000
FTUS45 KABQ 190500
TAFGUP
TAF
KGUP 190524Z 1906/2006 VRB06KT P6SM SCT120 SCT150
     FM191900 22010KT P6SM SCT100 SCT150
     FM192200 25011KT P6SM VCTS SCT080CB BKN120
     FM200100 26007KT P6SM VCSH SCT060 BKN090=



000
FTUS45 KABQ 190500
TAFROW
TAF
KROW 190524Z 1906/2006 16006KT P6SM SKC
     FM200100 19008KT P6SM SCT080 SCT150=



000
FTUS45 KABQ 190500
TAFLVS
TAF
KLVS 190524Z 1906/2006 VRB06KT P6SM SCT250
     FM191800 18013KT P6SM FEW070 SCT150
     FM200100 21011KT P6SM VCTS SCT070CB BKN130
     FM200400 24010KT P6SM VCSH BKN080 BKN150=



000
FTUS45 KABQ 190500
TAFSAF
TAF
KSAF 190524Z 1906/2006 VRB06KT P6SM SCT200
     FM191800 19010KT P6SM FEW080 SCT150
     FM200000 24011KT P6SM VCSH BKN080 BKN150=



000
FTUS45 KABQ 190500
TAFABQ
TAF
KABQ 190524Z 1906/2006 13005KT P6SM SCT200
     FM192000 19010KT P6SM FEW100 SCT150
     FM200100 27011G18KT P6SM VCSH SCT090 BKN150
     FM200400 30008KT P6SM VCSH BKN090 BKN150=



000
FTUS45 KABQ 190500
TAFFMN
TAF
KFMN 190524Z 1906/2006 VRB06KT P6SM VCSH SCT110 BKN150
     FM190800 08008KT P6SM SCT120 SCT150
     FM192000 23008KT P6SM SCT120 SCT150
     FM200000 28011KT P6SM VCSH BKN110
      TEMPO 2001/2004 -SHRA SCT050 BKN100=



000
FTUS45 KABQ 190500
TAFTCC
TAF
KTCC 190524Z 1906/2006 23008KT P6SM SCT200
     FM192100 17011KT P6SM FEW080
     FM200200 20010KT P6SM SCT080 SCT150=



000
FTUS45 KABQ 190200 AAA
TAFGUP
TAF AMD
KGUP 190234Z 1903/1924 26011KT P6SM VCSH BKN100 OVC150
     FM190800 VRB05KT P6SM SCT080 BKN150
     FM191900 23010KT P6SM SCT070 SCT100
     FM192200 26011KT P6SM VCTS BKN070CB BKN120=



000
FTUS45 KABQ 182300
TAFTCC
TAF
KTCC 182336Z 1900/1924 18010KT P6SM FEW120 SCT150
     FM190900 21006KT P6SM SCT200
     FM192100 17011KT P6SM FEW080=



000
FTUS45 KABQ 182300
TAFFMN
TAF
KFMN 182336Z 1900/1924 VRB05KT P6SM FEW110 SCT150
     FM190200 17007KT P6SM VCSH SCT090 BKN150
     FM191000 09007KT P6SM SCT110 BKN200
     FM192000 23008KT P6SM SCT100=



000
FTUS45 KABQ 182300
TAFLVS
TAF
KLVS 182336Z 1900/1924 21010KT P6SM VCTS SCT080CB BKN130
      TEMPO 1900/1902 VRB15G23KT -SHRA BKN070
     FM190200 VRB06KT P6SM SCT150 SCT200
     FM191800 18011KT P6SM FEW070 SCT150
     FM192100 21011KT P6SM VCTS SCT070CB BKN130=



000
FTUS45 KABQ 182300
TAFGUP
TAF
KGUP 182336Z 1900/1924 18010KT P6SM -SHRA OVC100
     FM190800 VRB05KT P6SM SCT080 BKN150
     FM191900 23010KT P6SM SCT070 SCT100
     FM192200 26011KT P6SM VCTS BKN070CB BKN120=



000
FTUS45 KABQ 182300
TAFABQ
TAF
KABQ 182336Z 1900/1924 19006KT P6SM FEW090 SCT150
     FM190200 13006KT P6SM SCT200
     FM192000 19010KT P6SM FEW100 SCT150=



000
FTUS45 KABQ 182300
TAFSAF
TAF
KSAF 182336Z 1900/1924 15009KT P6SM VCSH SCT080 SCT150
     FM190500 02008KT P6SM SCT200
     FM191800 19010KT P6SM FEW080 SCT150=



000
FTUS45 KABQ 182300
TAFROW
TAF
KROW 182336Z 1900/1924 VRB05KT P6SM FEW130
     FM190200 16006KT P6SM SKC=



000
FTUS45 KABQ 182100 AAB
TAFSAF
TAF AMD
KSAF 182126Z 1821/1918 VRB05KT P6SM VCSH SCT080 BKN150
     FM190200 12007KT P6SM SCT120 BKN200=



000
FTUS45 KABQ 182100 AAB
TAFGUP
TAF AMD
KGUP 182125Z 1821/1918 VRB05KT P6SM VCTS BKN070CB
      TEMPO 1821/1823 VRB15G25KT -TSRA OVC060CB
     FM182300 VRB05KT P6SM -SHRA OVC070
     FM190500 VRB05KT P6SM BKN110=



000
FTUS45 KABQ 182000 AAA
TAFLVS
TAF AMD
KLVS 182009Z 1820/1918 27010KT P6SM VCSH SCT080 BKN120
      TEMPO 1820/1823 VRB15G25KT -SHRA BKN080
     FM190200 16008KT P6SM SCT110 BKN200=



000
FTUS45 KABQ 181900 AAA
TAFSAF
TAF AMD
KSAF 181930Z 1820/1918 19007KT P6SM VCSH SCT080 BKN150
     FM182030 21008KT P6SM VCTS BKN080CB
      TEMPO 1821/1823 VRB18G28KT -SHRA BKN070
     FM190000 15008KT P6SM VCSH BKN100
     FM190200 12007KT P6SM SCT120 BKN200=



000
FTUS45 KABQ 181900 AAA
TAFGUP
TAF AMD
KGUP 181928Z 1819/1918 18010KT P6SM VCTS BKN070CB
      TEMPO 1820/1822 VRB15G25KT -TSRA OVC060CB
     FM190000 18006KT P6SM -SHRA OVC070
     FM190600 VRB05KT P6SM BKN110=



    US Dept of Commerce
    National Oceanic and Atmospheric Administration
    National Weather Service
    1325 East West Highway
    Silver Spring, MD 20910
    Page Author: NWS Internet Services Team
Disclaimer
Information Quality
Credits
Glossary
Privacy Policy
Freedom of Information Act (FOIA)
About Us
Career Opportunities